createdAt,value
2022-10-21T00:00:56.529Z,1.67
2022-10-21T00:03:25.689Z,1.73
2022-10-21T00:05:53.576Z,1.80
2022-10-21T00:08:20.774Z,2.00
2022-10-21T00:10:56.083Z,1.88
2022-10-21T00:13:27.530Z,1.63
2022-10-21T00:16:11.515Z,1.60
2022-10-21T00:18:41.009Z,1.70
2022-10-21T00:21:19.185Z,1.80
2022-10-21T00:23:47.489Z,1.60
2022-10-21T00:26:16.129Z,1.85
2022-10-21T00:28:43.419Z,1.77
2022-10-21T00:31:12.916Z,1.65
2022-10-21T00:33:40.182Z,1.55
2022-10-21T00:36:09.900Z,1.73
2022-10-21T00:38:36.768Z,2.47
2022-10-21T00:41:03.679Z,1.85
2022-10-21T00:43:31.384Z,1.35
2022-10-21T00:46:04.505Z,1.40
2022-10-21T00:48:46.279Z,1.60
2022-10-21T00:51:17.683Z,2.80
2022-10-21T00:53:49.838Z,1.80
2022-10-21T00:56:28.482Z,1.50
2022-10-21T00:58:59.241Z,1.60
2022-10-21T01:01:26.381Z,1.70
2022-10-21T01:03:53.279Z,2.20
2022-10-21T01:06:26.343Z,1.45
2022-10-21T01:08:57.569Z,1.48
2022-10-21T01:11:26.896Z,1.63
2022-10-21T01:14:40.294Z,1.65
2022-10-21T01:17:45.730Z,1.60
2022-10-21T01:20:37.339Z,1.60
2022-10-21T01:23:42.543Z,1.67
2022-10-21T01:26:25.476Z,1.50
2022-10-21T01:29:32.952Z,1.70
2022-10-21T01:32:09.423Z,1.35
2022-10-21T01:35:03.137Z,1.70
2022-10-21T01:37:45.510Z,1.73
2022-10-21T01:40:31.433Z,1.60
2022-10-21T01:43:17.573Z,1.70
2022-10-21T01:45:55.996Z,1.60
2022-10-21T01:48:29.681Z,1.65
2022-10-21T01:51:06.947Z,1.70
2022-10-21T01:53:52.334Z,1.83
2022-10-21T01:56:21.342Z,1.67
2022-10-21T01:58:50.133Z,1.67
2022-10-21T02:01:20.880Z,1.45
2022-10-21T02:03:57.641Z,1.90
2022-10-21T02:06:25.358Z,1.70
2022-10-21T02:08:52.699Z,1.60
2022-10-21T02:11:20.227Z,1.55
2022-10-21T02:14:04.113Z,1.77
2022-10-21T02:16:37.739Z,1.55
2022-10-21T02:19:10.992Z,1.55
2022-10-21T02:21:38.134Z,1.70
2022-10-21T02:24:47.527Z,1.63
2022-10-21T02:27:18.299Z,1.65
2022-10-21T02:29:48.414Z,1.52
2022-10-21T02:32:35.418Z,1.50
2022-10-21T02:35:38.477Z,1.75
2022-10-21T02:38:35.903Z,1.83
2022-10-21T02:41:09.431Z,1.70
2022-10-21T02:43:53.351Z,1.60
2022-10-21T02:46:20.287Z,1.80
2022-10-21T02:48:49.123Z,1.73
2022-10-21T02:51:16.356Z,1.73
2022-10-21T02:53:43.523Z,1.55
2022-10-21T02:56:10.417Z,1.83
2022-10-21T02:58:37.730Z,1.52
2022-10-21T03:01:04.624Z,1.65
2022-10-21T03:03:31.597Z,1.90
2022-10-21T03:05:58.667Z,2.15
2022-10-21T03:08:25.625Z,1.60
2022-10-21T03:10:53.838Z,1.40
2022-10-21T03:13:21.868Z,1.75
2022-10-21T03:15:52.270Z,1.70
2022-10-21T03:18:19.527Z,1.80
2022-10-21T03:20:50.462Z,1.60
2022-10-21T03:23:19.414Z,1.55
2022-10-21T03:25:47.538Z,1.60
2022-10-21T03:28:14.692Z,1.70
2022-10-21T03:30:41.818Z,1.70
2022-10-21T03:33:08.830Z,1.65
2022-10-21T03:35:35.762Z,1.70
2022-10-21T03:38:02.687Z,1.65
2022-10-21T03:40:30.348Z,1.50
2022-10-21T03:43:00.969Z,1.50
2022-10-21T03:45:27.869Z,1.23
2022-10-21T03:47:54.864Z,1.60
2022-10-21T03:50:26.013Z,1.60
2022-10-21T03:52:54.344Z,1.50
2022-10-21T03:55:24.135Z,1.50
2022-10-21T03:57:51.935Z,1.60
2022-10-21T04:00:19.314Z,1.60
2022-10-21T04:02:46.299Z,1.40
2022-10-21T04:05:13.483Z,1.60
2022-10-21T04:07:40.848Z,1.50
2022-10-21T04:10:08.581Z,1.50
2022-10-21T04:12:36.028Z,1.90
2022-10-21T04:15:05.624Z,1.38
2022-10-21T04:17:32.648Z,1.70
2022-10-21T04:19:59.687Z,1.60
2022-10-21T04:22:26.520Z,1.40
2022-10-21T04:24:53.357Z,1.25
2022-10-21T04:27:20.281Z,1.38
2022-10-21T04:29:47.160Z,1.50
2022-10-21T04:32:14.126Z,1.45
2022-10-21T04:34:40.945Z,1.10
2022-10-21T04:37:07.788Z,1.50
2022-10-21T04:39:34.635Z,1.40
2022-10-21T04:42:01.545Z,1.40
2022-10-21T04:44:28.424Z,1.70
2022-10-21T04:46:55.344Z,1.50
2022-10-21T04:49:22.332Z,1.58
2022-10-21T04:51:49.287Z,1.30
2022-10-21T04:54:16.175Z,1.80
2022-10-21T04:56:43.416Z,1.40
2022-10-21T04:59:10.430Z,1.50
2022-10-21T05:01:37.327Z,1.48
2022-10-21T05:04:04.319Z,1.40
2022-10-21T05:06:31.665Z,1.40
2022-10-21T05:08:58.622Z,1.45
2022-10-21T05:11:25.596Z,1.50
2022-10-21T05:13:52.535Z,1.55
2022-10-21T05:16:19.488Z,1.20
2022-10-21T05:18:46.423Z,1.30
2022-10-21T05:21:13.413Z,1.30
2022-10-21T05:23:40.344Z,1.60
2022-10-21T05:26:07.878Z,1.40
2022-10-21T05:28:34.724Z,1.35
2022-10-21T05:31:01.503Z,1.40
2022-10-21T05:33:29.024Z,1.30
2022-10-21T05:36:02.215Z,1.20
2022-10-21T05:38:30.064Z,1.45
2022-10-21T05:40:58.095Z,1.30
2022-10-21T05:43:27.848Z,1.10
2022-10-21T05:45:54.766Z,1.35
2022-10-21T05:48:21.777Z,1.13
2022-10-21T05:50:52.384Z,1.40
2022-10-21T05:53:23.814Z,1.48
2022-10-21T05:56:03.195Z,1.40
2022-10-21T05:58:32.694Z,1.13
2022-10-21T06:01:00.620Z,1.45
2022-10-21T06:03:31.824Z,1.20
2022-10-21T06:06:01.652Z,1.35
2022-10-21T06:08:34.604Z,4.22
2022-10-21T06:11:17.089Z,1.50
2022-10-21T06:13:44.800Z,1.20
2022-10-21T06:16:13.573Z,1.85
2022-10-21T06:18:41.500Z,1.33
2022-10-21T06:21:09.792Z,2.35
2022-10-21T06:23:36.811Z,1.23
2022-10-21T06:26:14.982Z,1.60
2022-10-21T06:28:44.616Z,1.30
2022-10-21T06:31:17.233Z,1.38
2022-10-21T06:33:46.425Z,1.25
2022-10-21T06:36:13.818Z,1.25
2022-10-21T06:38:40.753Z,1.13
2022-10-21T06:41:13.306Z,2.45
2022-10-21T06:43:42.067Z,1.05
2022-10-21T06:46:14.882Z,1.20
2022-10-21T06:48:42.342Z,1.77
2022-10-21T06:51:19.203Z,6.28
2022-10-21T06:53:49.695Z,1.55
2022-10-21T06:56:19.339Z,2.10
2022-10-21T06:58:49.312Z,2.35
2022-10-21T07:01:34.745Z,7.85
2022-10-21T07:04:10.164Z,3.58
2022-10-21T07:06:40.507Z,4.57
2022-10-21T07:09:08.786Z,1.55
2022-10-21T07:11:38.567Z,1.52
2022-10-21T07:14:05.673Z,1.98
2022-10-21T07:16:41.487Z,2.88
2022-10-21T07:19:10.948Z,2.72
2022-10-21T07:21:38.086Z,3.50
2022-10-21T07:24:05.295Z,3.70
2022-10-21T07:26:34.454Z,3.70
2022-10-21T07:29:02.178Z,3.63
2022-10-21T07:31:34.299Z,3.40
2022-10-21T07:34:07.131Z,4.38
2022-10-21T07:36:39.184Z,4.13
2022-10-21T07:39:16.569Z,4.40
2022-10-21T07:41:48.795Z,3.13
2022-10-21T07:44:17.393Z,3.78
2022-10-21T07:46:45.115Z,2.92
2022-10-21T08:04:22.508Z,2.85
2022-10-21T08:06:49.850Z,2.67
2022-10-21T08:09:17.655Z,6.25
2022-10-21T08:11:45.248Z,13.90
2022-10-21T08:14:12.383Z,4.60
2022-10-21T08:16:39.942Z,5.63
2022-10-21T08:19:07.970Z,6.82
2022-10-21T08:21:36.244Z,16.23
2022-10-21T08:24:04.584Z,7.22
2022-10-21T08:26:31.870Z,3.78
2022-10-21T08:29:00.235Z,5.90
2022-10-21T08:31:31.067Z,4.07
2022-10-21T08:33:59.125Z,3.85
2022-10-21T08:36:27.103Z,3.05
2022-10-21T08:38:55.128Z,5.40
2022-10-21T08:41:30.877Z,4.13
2022-10-21T08:44:25.166Z,6.03
2022-10-21T08:47:19.519Z,4.00
2022-10-21T08:49:55.072Z,3.10
2022-10-21T08:52:38.315Z,5.75
2022-10-21T08:55:16.097Z,3.40
2022-10-21T08:57:43.531Z,6.55
2022-10-21T09:00:31.453Z,6.57
2022-10-21T09:03:04.142Z,3.53
2022-10-21T09:05:53.221Z,10.65
2022-10-21T09:08:58.533Z,10.15
2022-10-21T09:11:52.635Z,5.60
2022-10-21T09:14:56.696Z,4.10
2022-10-21T09:17:55.728Z,8.30
2022-10-21T09:21:05.685Z,7.22
2022-10-21T09:23:53.444Z,6.55
2022-10-21T09:26:44.467Z,4.53
2022-10-21T09:41:46.620Z,4.07
2022-10-21T09:44:19.947Z,6.55
2022-10-21T09:46:49.537Z,5.13
2022-10-21T09:50:06.491Z,3.90
2022-10-21T09:52:23.087Z,6.72
2022-10-21T09:54:50.565Z,6.50
2022-10-21T09:57:42.468Z,4.25
2022-10-21T10:00:15.588Z,4.57
2022-10-21T10:02:46.177Z,2.35
2022-10-21T10:05:43.608Z,3.38
2022-10-21T10:08:31.117Z,5.75
2022-10-21T10:11:17.457Z,5.32
2022-10-21T10:13:51.971Z,3.83
2022-10-21T10:16:32.428Z,3.47
2022-10-21T10:19:24.827Z,2.05
2022-10-21T10:22:16.461Z,3.00
2022-10-21T10:24:44.744Z,4.28
2022-10-21T10:27:26.582Z,3.55
2022-10-21T10:29:57.398Z,2.78
2022-10-21T10:32:31.677Z,5.75
2022-10-21T10:35:08.628Z,5.30
2022-10-21T10:37:38.300Z,8.07
2022-10-21T10:40:09.471Z,3.03
2022-10-21T10:42:45.403Z,4.07
2022-10-21T10:45:20.395Z,5.43
2022-10-21T10:47:55.560Z,2.90
2022-10-21T10:50:47.280Z,6.65
2022-10-21T10:53:34.740Z,2.58
2022-10-21T10:56:15.860Z,3.25
2022-10-21T10:59:35.819Z,3.42
2022-10-21T11:02:21.389Z,7.50
2022-10-21T11:05:18.020Z,4.85
2022-10-21T11:08:02.007Z,2.90
2022-10-21T11:10:51.374Z,3.17
2022-10-21T11:13:22.565Z,4.82
2022-10-21T11:16:25.612Z,2.00
2022-10-21T11:19:15.520Z,2.80
2022-10-21T11:22:10.718Z,3.15
2022-10-21T11:25:05.114Z,4.13
2022-10-21T11:27:49.736Z,3.15
2022-10-21T11:30:23.824Z,2.08
2022-10-21T11:33:22.601Z,2.53
2022-10-21T11:36:23.484Z,1.58
2022-10-21T11:39:21.321Z,2.42
2022-10-21T11:42:06.632Z,1.38
2022-10-21T11:45:12.605Z,1.65
2022-10-21T11:48:15.974Z,1.40
2022-10-21T11:51:16.632Z,1.77
2022-10-21T11:54:57.529Z,1.90
2022-10-21T11:58:32.664Z,1.33
2022-10-21T12:01:16.954Z,1.67
2022-10-21T12:04:19.393Z,3.08
2022-10-21T12:07:12.999Z,1.40
2022-10-21T12:09:59.600Z,2.17
2022-10-21T12:12:41.058Z,1.52
2022-10-21T12:15:21.962Z,1.92
2022-10-21T12:17:51.497Z,1.38
2022-10-21T12:20:24.447Z,1.77
2022-10-21T12:23:06.595Z,2.08
2022-10-21T12:26:05.309Z,1.27
2022-10-21T12:28:51.232Z,1.52
2022-10-21T12:31:27.124Z,2.20
2022-10-21T12:34:02.537Z,2.85
2022-10-21T12:36:44.309Z,1.35
2022-10-21T12:39:35.499Z,2.28
2022-10-21T12:42:16.036Z,1.23
2022-10-21T12:44:52.304Z,1.75
2022-10-21T12:47:43.455Z,1.23
2022-10-21T12:50:24.682Z,1.27
2022-10-21T12:53:38.515Z,1.33
2022-10-21T12:56:08.687Z,1.33
2022-10-21T12:58:45.654Z,1.45
2022-10-21T13:01:40.745Z,1.33
2022-10-21T13:04:40.131Z,1.40
2022-10-21T13:07:18.131Z,1.27
2022-10-21T13:09:50.912Z,1.00
2022-10-21T13:12:23.901Z,1.10
2022-10-21T13:15:12.025Z,2.17
2022-10-21T13:17:50.945Z,1.20
2022-10-21T13:20:23.468Z,1.60
2022-10-21T13:23:14.609Z,1.20
2022-10-21T13:25:41.666Z,1.00
2022-10-21T13:28:14.609Z,1.23
2022-10-21T13:30:59.544Z,1.15
2022-10-21T13:33:32.135Z,1.23
2022-10-21T13:36:14.136Z,1.10
2022-10-21T13:38:52.846Z,0.88
2022-10-21T13:41:28.903Z,1.35
2022-10-21T13:43:59.224Z,1.17
2022-10-21T13:46:43.530Z,0.95
2022-10-21T13:49:33.769Z,1.20
2022-10-21T13:52:00.767Z,0.80
2022-10-21T13:54:37.911Z,1.58
2022-10-21T13:57:09.507Z,0.90
2022-10-21T13:59:36.628Z,1.10
2022-10-21T14:02:05.877Z,1.27
2022-10-21T14:04:39.521Z,0.88
2022-10-21T14:07:15.807Z,1.27
2022-10-21T14:09:52.007Z,1.00
2022-10-21T14:12:44.719Z,0.90
2022-10-21T14:15:19.170Z,1.10
2022-10-21T14:17:58.100Z,1.08
2022-10-21T14:20:37.686Z,1.15
2022-10-21T14:23:08.510Z,0.90
2022-10-21T14:25:35.870Z,0.77
2022-10-21T14:28:05.276Z,2.05
2022-10-21T14:30:37.152Z,0.90
2022-10-21T14:33:08.432Z,1.30
2022-10-21T14:35:35.664Z,0.80
2022-10-21T14:38:04.530Z,0.80
2022-10-21T14:40:34.562Z,1.02
2022-10-21T14:43:18.730Z,0.82
2022-10-21T14:45:51.705Z,1.15
2022-10-21T14:48:33.361Z,0.65
2022-10-21T14:51:06.763Z,0.95
2022-10-21T14:53:46.995Z,0.85
2022-10-21T14:56:24.197Z,0.98
2022-10-21T14:58:58.956Z,1.00
2022-10-21T15:01:27.269Z,0.75
2022-10-21T15:03:59.510Z,1.38
2022-10-21T15:06:34.767Z,0.82
2022-10-21T15:09:10.665Z,1.08
2022-10-21T15:11:46.975Z,0.82
2022-10-21T15:14:14.087Z,1.30
2022-10-21T15:17:07.256Z,0.73
2022-10-21T15:19:51.945Z,0.80
2022-10-21T15:22:29.633Z,1.65
2022-10-21T15:25:07.076Z,0.70
2022-10-21T15:27:42.574Z,0.70
2022-10-21T15:30:22.117Z,1.17
2022-10-21T15:32:50.052Z,0.95
2022-10-21T15:35:21.770Z,0.80
2022-10-21T15:37:53.570Z,0.75
2022-10-21T15:40:22.155Z,0.85
2022-10-21T15:42:49.579Z,0.70
2022-10-21T15:45:24.845Z,0.98
2022-10-21T15:47:54.103Z,0.90
2022-10-21T15:50:26.931Z,1.00
2022-10-21T15:52:57.188Z,1.08
2022-10-21T15:55:27.233Z,1.08
2022-10-21T15:57:54.217Z,0.88
2022-10-21T16:00:23.126Z,0.70
2022-10-21T16:02:51.740Z,0.73
2022-10-21T16:05:21.280Z,0.63
2022-10-21T16:07:48.188Z,0.70
2022-10-21T16:10:29.659Z,0.93
2022-10-21T16:12:58.309Z,0.82
2022-10-21T16:15:25.986Z,0.98
2022-10-21T16:17:56.983Z,0.85
2022-10-21T16:20:31.702Z,0.93
2022-10-21T16:23:02.179Z,0.75
2022-10-21T16:25:31.401Z,1.00
2022-10-21T16:27:58.473Z,0.82
2022-10-21T16:30:35.377Z,1.90
2022-10-21T16:33:02.532Z,1.25
2022-10-21T16:35:29.775Z,4.43
2022-10-21T16:37:56.699Z,2.05
2022-10-21T16:40:26.752Z,2.15
2022-10-21T16:42:54.244Z,1.10
2022-10-21T16:45:27.285Z,1.10
2022-10-21T16:47:56.766Z,2.20
2022-10-21T16:50:40.731Z,2.65
2022-10-21T16:53:14.131Z,4.07
2022-10-21T16:55:43.989Z,2.40
2022-10-21T16:58:13.335Z,1.67
2022-10-21T17:00:41.392Z,1.70
2022-10-21T17:03:11.811Z,4.63
2022-10-21T17:05:38.834Z,5.65
2022-10-21T17:08:05.810Z,3.00
2022-10-21T17:10:32.801Z,2.03
2022-10-21T17:13:01.470Z,2.60
2022-10-21T17:15:31.471Z,4.28
2022-10-21T17:17:59.388Z,1.65
2022-10-21T17:20:30.698Z,4.03
2022-10-21T17:22:59.818Z,1.52
2022-10-21T17:25:29.336Z,3.03
2022-10-21T17:27:57.117Z,4.05
2022-10-21T17:30:24.064Z,1.08
2022-10-21T17:32:51.113Z,2.25
2022-10-21T17:35:21.899Z,1.42
2022-10-21T17:37:50.175Z,1.55
2022-10-21T17:40:26.716Z,1.40
2022-10-21T17:42:54.412Z,1.52
2022-10-21T17:45:22.822Z,1.27
2022-10-21T17:47:51.762Z,3.13
2022-10-21T17:50:23.797Z,1.73
2022-10-21T17:52:53.049Z,2.50
2022-10-21T17:55:20.803Z,1.17
2022-10-21T17:57:48.546Z,2.08
2022-10-21T18:00:15.742Z,1.90
2022-10-21T18:02:42.752Z,2.35
2022-10-21T18:05:10.770Z,3.25
2022-10-21T18:07:38.451Z,1.70
2022-10-21T18:10:08.140Z,3.15
2022-10-21T18:12:35.712Z,1.63
2022-10-21T18:15:03.534Z,1.70
2022-10-21T18:17:30.578Z,2.05
2022-10-21T18:20:00.299Z,2.03
2022-10-21T18:22:27.247Z,1.98
2022-10-21T18:24:54.142Z,1.35
2022-10-21T18:27:21.611Z,1.75
2022-10-21T18:29:48.622Z,1.30
2022-10-21T18:32:15.704Z,3.17
2022-10-21T18:34:42.754Z,1.45
2022-10-21T18:37:09.763Z,1.55
2022-10-21T18:39:36.914Z,1.88
2022-10-21T18:42:04.076Z,1.92
2022-10-21T18:44:30.939Z,2.10
2022-10-21T18:46:57.960Z,2.28
2022-10-21T18:49:24.823Z,2.78
2022-10-21T18:51:51.754Z,1.42
2022-10-21T18:54:18.704Z,3.55
2022-10-21T18:56:45.646Z,2.35
2022-10-21T18:59:12.682Z,2.08
2022-10-21T19:01:40.403Z,1.77
2022-10-21T19:04:07.846Z,1.75
2022-10-21T19:06:46.366Z,1.98
2022-10-21T19:09:20.837Z,2.60
2022-10-21T19:11:48.683Z,2.03
2022-10-21T19:14:16.682Z,1.95
2022-10-21T19:16:45.531Z,1.50
2022-10-21T19:19:14.424Z,2.38
2022-10-21T19:21:41.736Z,1.55
2022-10-21T19:24:09.944Z,2.60
2022-10-21T19:26:41.917Z,2.63
2022-10-21T19:29:13.790Z,2.17
2022-10-21T19:31:42.739Z,1.95
2022-10-21T19:34:19.351Z,1.42
2022-10-21T19:36:48.723Z,1.65
2022-10-21T19:39:16.721Z,1.75
2022-10-21T19:41:43.683Z,1.55
2022-10-21T19:44:10.687Z,1.52
2022-10-21T19:46:39.324Z,1.80
2022-10-21T19:49:08.619Z,1.70
2022-10-21T19:51:36.830Z,1.80
2022-10-21T19:54:06.731Z,3.28
2022-10-21T19:56:34.709Z,1.25
2022-10-21T19:59:03.093Z,1.30
2022-10-21T20:01:32.632Z,1.83
2022-10-21T20:04:02.043Z,1.25
2022-10-21T20:06:36.226Z,1.42
2022-10-21T20:09:09.222Z,2.38
2022-10-21T20:11:38.121Z,1.13
2022-10-21T20:14:05.651Z,1.77
2022-10-21T20:16:37.256Z,1.30
2022-10-21T20:19:06.750Z,1.88
2022-10-21T20:21:36.418Z,1.42
2022-10-21T20:24:04.515Z,1.70
2022-10-21T20:26:31.581Z,1.40
2022-10-21T20:29:03.156Z,2.03
2022-10-21T20:31:30.710Z,1.13
2022-10-21T20:33:57.752Z,1.20
2022-10-21T20:36:28.989Z,1.80
2022-10-21T20:38:59.440Z,1.45
2022-10-21T20:41:34.429Z,1.45
2022-10-21T20:44:03.352Z,3.05
2022-10-21T20:46:35.042Z,1.30
2022-10-21T20:49:05.507Z,1.38
2022-10-21T20:51:33.216Z,2.03
2022-10-21T20:54:03.689Z,1.92
2022-10-21T20:56:34.668Z,1.50
2022-10-21T20:59:02.932Z,1.60
2022-10-21T21:01:34.268Z,1.83
2022-10-21T21:04:06.197Z,1.58
2022-10-21T21:06:43.341Z,1.63
2022-10-21T21:12:00.701Z,1.45
2022-10-21T21:14:27.758Z,1.20
2022-10-21T21:16:55.293Z,1.40
2022-10-21T21:19:22.342Z,2.17
2022-10-21T21:21:49.457Z,1.60
2022-10-21T21:24:16.425Z,1.30
2022-10-21T21:26:46.689Z,1.23
2022-10-21T21:29:14.344Z,1.77
2022-10-21T21:31:42.854Z,1.10
2022-10-21T21:34:12.927Z,1.10
2022-10-21T21:36:40.246Z,1.38
2022-10-21T21:39:08.278Z,1.58
2022-10-21T21:41:35.987Z,1.10
2022-10-21T21:44:04.571Z,1.23
2022-10-21T21:46:34.241Z,1.20
2022-10-21T21:49:06.089Z,1.17
2022-10-21T21:51:36.393Z,1.20
2022-10-21T21:54:05.378Z,1.23
2022-10-21T21:56:32.430Z,1.30
2022-10-21T21:58:59.365Z,1.10
2022-10-21T22:01:29.225Z,1.20
2022-10-21T22:04:00.268Z,1.45
2022-10-21T22:06:32.148Z,1.02
2022-10-21T22:09:00.798Z,1.27
2022-10-21T22:11:33.234Z,0.98
2022-10-21T22:14:00.320Z,1.10
2022-10-21T22:16:30.407Z,1.08
2022-10-21T22:19:00.227Z,0.98
2022-10-21T22:21:30.569Z,1.23
2022-10-21T22:23:57.717Z,1.10
2022-10-21T22:26:26.835Z,0.80
2022-10-21T22:28:54.231Z,0.90
2022-10-21T22:31:27.331Z,1.65
2022-10-21T22:33:57.640Z,1.00
2022-10-21T22:36:24.505Z,1.10
2022-10-21T22:38:51.399Z,1.02
2022-10-21T22:41:21.173Z,1.00
2022-10-21T22:43:48.095Z,1.25
2022-10-21T22:46:33.362Z,1.20
2022-10-21T22:49:01.136Z,0.90
2022-10-21T22:51:28.052Z,1.02
2022-10-21T22:53:57.022Z,1.10
2022-10-21T22:56:26.353Z,0.90
2022-10-21T22:58:53.764Z,1.00
2022-10-21T23:01:21.498Z,0.98
2022-10-21T23:03:48.396Z,1.00
2022-10-21T23:06:15.660Z,0.90
2022-10-21T23:08:45.175Z,1.02
2022-10-21T23:11:12.086Z,0.85
2022-10-21T23:13:47.365Z,1.10
2022-10-21T23:16:25.399Z,1.08
2022-10-21T23:18:52.284Z,1.33
2022-10-21T23:21:19.165Z,1.00
2022-10-21T23:23:46.157Z,0.90
2022-10-21T23:26:13.088Z,0.93
2022-10-21T23:28:40.002Z,0.90
2022-10-21T23:31:06.899Z,0.73
2022-10-21T23:33:33.773Z,1.00
2022-10-21T23:36:00.689Z,0.80
2022-10-21T23:38:27.612Z,0.90
2022-10-21T23:40:54.503Z,0.85
2022-10-21T23:43:22.036Z,1.05
2022-10-21T23:45:49.454Z,1.38
2022-10-21T23:48:16.426Z,0.90
2022-10-21T23:50:44.681Z,0.80
2022-10-21T23:53:11.881Z,0.98
2022-10-21T23:55:38.821Z,0.80
2022-10-21T23:58:05.758Z,0.80
